Monticello, KY (42633)

1:24 AM EDT on July 29, 2016 (GMT -0400)
Susie Community, Monticello, Urman-Link | | Change Station

Elev 997 ft 36.78 °N, 84.96 °W | Updated 10 minutes ago

Fog
Fog
69.3 °F
Feels Like 69.3 °F
N
0.0
Wind Variable Wind from South

Today
High -- | Low -- °F
--% Chance of Precip.
Yesterday
High -- | Low -- °F
Precip. -- in
Pressure 29.98 in
Visibility 0.5 miles
Clouds Overcast 100 ft
Dew Point 67 °F
Humidity 91%
Rainfall 0.00 in
Snow Depth Not available.
6:42 AM 8:48 PM
Waning Crescent, 25% visible
METAR KSME 290515Z AUTO 00000KT 1/2SM FG OVC001 20/20 A2998 RMK AO2
Pressure 29.98 in
Visibility 0.5 miles
Clouds Overcast 100 ft
Dew Point 67 °F
Humidity 91%
Rainfall 0.00 in
Snow Depth Not available.
6:42 AM 8:48 PM
Waning Crescent, 25% visible
METAR KSME 290515Z AUTO 00000KT 1/2SM FG OVC001 20/20 A2998 RMK AO2

10-Day Weather Forecast

Almanac

Astronomy

Jul. 29, 2016 Rise Set
Actual Time
Civil Twilight
Nautical Twilight
Astronomical Twilight
Moon
Length of Visible Light
Length of Day
Tomorrow will be .
, % of the Moon is Illuminated

Today's Extremes

State Highs State Lows

Community

WunderPhotos

Upload Photos

1,928,297 photos uploaded!

WunderBlog® & News

Nearby

Air Quality

  Air Quality AQ Index Pollutant
Not available.

Snow Depth

Station Depth Elevation

Earthquake Activity

City Distance Mag. Time & Date
Minimum magnitude displayed is 2.5.

Coastal Water Temperatures

Place Temperature

Stations

Nearby Weather Stations

Station Location Temp. Windchill Dew Point Humidity Wind Precip. Elev Updated Type
                   

Watches & Warnings

There are currently no watches in effect.